SBAR Airport Information

Runway Information
Runway 11 Length 7218 ft width 148 ft
Elevation 0 ft Threshold 0 ft Heading 0
Runway 29 Length 7218 ft Width 148 ft
Elevation 0 ft Threshold 0 ft Heading 0
Airport Frequencies
Type APP Name ARACAJU AP Frequency 120.3 MHZ
Airport Navaids
Type VOR-DME Name Aracaju Frequency 112000 KHZ
Type NDB Name Aracaju Frequency 355 KHZ
Airport Weather Information & NOTAM
ADDS - METARS form results

(0141 UTC 22 January 2019)
Data provider http://aviationweather.gov/metar/data/
 
METAR text: SBAR 220100Z 11010KT 9999 SCT018 28/21 Q1016
Conditions at: SBAR (ARACAJU/SANTA MA, BR) observed 0100 UTC 22 January 2019
Temperature: 28.0°C (82°F)
Dewpoint: 21.0°C (70°F) [RH = 66%]
Pressure (altimeter): 30.00 inches Hg (1016.0 mb)
Winds: from the ESE (110 degrees) at 12 MPH (10 knots; 5.1 m/s)
Visibility: 6 or more miles (10+ km)
Ceiling: at least 12,000 feet AGL
Clouds: scattered clouds at 1800 feet AGL
Weather: no significant weather observed at this time

Forecast for: SBAR (ARACAJU/SANTA MA, BR)
Text: TAF SBAR 212200Z 2200/2212 10010KT 9999 SCT018 TN26/2208Z TX29/2211Z RMK PEU
Forecast period: 0000 to 1200 UTC 22 January 2019
Forecast type: FROM: standard forecast or significant change
Winds: from the E (100 degrees) at 12 MPH (10 knots; 5.1 m/s)
Visibility: 6 or more miles 10+ km)
Ceiling: at least 12,000 feet AGL
Clouds: scattered clouds at 1800 feet AGL
Weather: PE  (moderate ice pellets)